Time;durP1;ratioP1;P1;durP2;ratioP2;P2;SDS_P1;SDS_P2;PMS_P1;PMS_P2;Temp;Humidity;BMP_temperature;BMP_pressure;BME280_temperature;BME280_humidity;BME280_pressure;Samples;Min_cycle;Max_cycle;Signal;HPM_P1;HPM_P2
2023/08/28 00:02:20;;;;;;;0.82;0.82;;;13.00;99.90;;;;;;5090122;28;20398;-75
2023/08/28 00:04:46;;;;;;;0.40;0.40;;;13.10;99.90;;;;;;5090177;28;20667;-75
2023/08/28 00:07:12;;;;;;;0.30;0.30;;;12.90;99.90;;;;;;5095582;27;20537;-76
2023/08/28 00:09:38;;;;;;;0.40;0.40;;;12.90;99.90;;;;;;5085698;28;20055;-76
2023/08/28 00:12:04;;;;;;;0.68;0.68;;;12.90;99.90;;;;;;5088425;28;20112;-75
2023/08/28 00:14:31;;;;;;;0.30;0.30;;;12.70;99.90;;;;;;5085486;28;20094;-75
2023/08/28 00:16:57;;;;;;;2.60;1.08;;;13.00;99.90;;;;;;5085043;28;20128;-77
2023/08/28 00:19:23;;;;;;;;;;;12.70;99.90;;;;;;5085899;28;20505;-75
2023/08/28 00:21:48;;;;;;;0.30;0.30;;;12.70;99.90;;;;;;5085502;28;19928;-76
2023/08/28 00:24:14;;;;;;;0.30;0.30;;;12.80;99.90;;;;;;5084559;28;20039;-75
2023/08/28 00:26:39;;;;;;;0.30;0.30;;;12.70;99.90;;;;;;5086213;28;20063;-75
2023/08/28 00:29:05;;;;;;;0.30;0.30;;;12.70;99.90;;;;;;5083716;28;20044;-75
2023/08/28 00:31:31;;;;;;;0.40;0.40;;;12.80;99.90;;;;;;5078657;28;20048;-75
2023/08/28 00:33:56;;;;;;;0.30;0.30;;;12.60;99.90;;;;;;5085842;28;20177;-75
2023/08/28 00:36:22;;;;;;;0.30;0.30;;;12.60;99.90;;;;;;5086913;28;20051;-75
2023/08/28 00:38:48;;;;;;;0.50;0.50;;;12.60;99.90;;;;;;5084838;28;20444;-75
2023/08/28 00:41:13;;;;;;;1.38;0.77;;;12.60;99.90;;;;;;5084172;28;20469;-75
2023/08/28 00:43:39;;;;;;;1.05;1.00;;;12.60;99.90;;;;;;5084192;28;20048;-75
2023/08/28 00:46:06;;;;;;;0.45;0.45;;;12.70;99.90;;;;;;5084942;28;20363;-76
2023/08/28 00:48:32;;;;;;;0.50;0.50;;;12.70;99.90;;;;;;5079383;28;20055;-75
2023/08/28 00:51:00;;;;;;;0.30;0.30;;;12.70;99.90;;;;;;5087292;28;20044;-75
2023/08/28 00:53:26;;;;;;;0.40;0.40;;;12.70;99.90;;;;;;5084444;28;20056;-75
2023/08/28 00:55:53;;;;;;;0.40;0.40;;;12.70;99.90;;;;;;5086745;28;20559;-76
2023/08/28 00:58:18;;;;;;;0.40;0.40;;;12.70;99.90;;;;;;5088299;28;20223;-75
2023/08/28 01:00:44;;;;;;;0.30;0.30;;;12.60;99.90;;;;;;5091361;28;20035;-75
2023/08/28 01:03:10;;;;;;;0.30;0.30;;;12.60;99.90;;;;;;5084896;28;20036;-75
2023/08/28 01:05:43;;;;;;;0.32;0.32;;;12.70;99.90;;;;;;5089286;28;20048;-75
2023/08/28 01:08:48;;;;;;;0.40;0.40;;;12.70;99.90;;;;;;5088753;28;20047;-75
2023/08/28 01:11:41;;;;;;;0.50;0.50;;;12.50;99.90;;;;;;5087569;28;20048;-75
2023/08/28 01:14:27;;;;;;;0.32;0.32;;;12.50;99.90;;;;;;5084231;28;20131;-75
2023/08/28 01:16:59;;;;;;;0.40;0.40;;;12.60;99.90;;;;;;5086772;28;20055;-75
2023/08/28 01:19:38;;;;;;;0.30;0.30;;;12.50;99.90;;;;;;5091538;28;20048;-75
2023/08/28 01:22:18;;;;;;;0.50;0.50;;;12.70;99.90;;;;;;5087122;28;20040;-75
2023/08/28 01:25:12;;;;;;;0.38;0.38;;;12.80;99.90;;;;;;5087150;28;20422;-75
2023/08/28 01:27:41;;;;;;;0.50;0.50;;;12.90;99.90;;;;;;5087880;28;20824;-75
2023/08/28 01:30:08;;;;;;;0.40;0.40;;;12.80;99.90;;;;;;5090284;28;20051;-75
2023/08/28 01:32:34;;;;;;;1.15;1.10;;;13.00;99.90;;;;;;5088624;28;20398;-75
2023/08/28 01:35:02;;;;;;;0.30;0.30;;;12.90;99.90;;;;;;5085138;28;20062;-75
2023/08/28 01:37:50;;;;;;;0.30;0.30;;;11.90;99.90;;;;;;5087096;28;20087;-75
2023/08/28 01:40:17;;;;;;;0.50;0.50;;;13.00;99.90;;;;;;5088961;28;20100;-75
2023/08/28 01:42:48;;;;;;;0.40;0.40;;;12.90;99.90;;;;;;5087284;28;20051;-75
2023/08/28 01:45:16;;;;;;;0.80;0.80;;;12.90;99.90;;;;;;5088608;28;20059;-75
2023/08/28 01:47:42;;;;;;;0.30;0.30;;;12.90;99.90;;;;;;5090126;28;20155;-75
2023/08/28 01:50:08;;;;;;;0.38;0.38;;;12.90;99.90;;;;;;5088867;28;20051;-75
2023/08/28 01:52:33;;;;;;;1.55;0.50;;;12.70;99.90;;;;;;5087051;28;20052;-77
2023/08/28 01:54:59;;;;;;;0.30;0.30;;;12.80;99.90;;;;;;5092445;28;20063;-77
2023/08/28 01:57:25;;;;;;;0.30;0.30;;;12.60;99.90;;;;;;5087711;28;20052;-77
2023/08/28 01:59:51;;;;;;;0.30;0.30;;;12.50;99.90;;;;;;5089015;28;20067;-77
2023/08/28 02:02:16;;;;;;;0.38;0.38;;;12.60;99.90;;;;;;5087263;28;20744;-77
2023/08/28 02:04:42;;;;;;;0.30;0.30;;;12.50;99.90;;;;;;5085896;28;20402;-76
2023/08/28 02:07:07;;;;;;;0.32;0.32;;;12.50;99.90;;;;;;5091573;28;20559;-77
2023/08/28 02:09:33;;;;;;;0.43;0.43;;;12.40;99.90;;;;;;5092790;28;20527;-76
2023/08/28 02:11:59;;;;;;;0.40;0.40;;;12.50;99.90;;;;;;5088886;28;20054;-76
2023/08/28 02:14:24;;;;;;;0.52;0.52;;;12.40;99.90;;;;;;5082991;28;20770;-77
2023/08/28 02:16:50;;;;;;;0.40;0.40;;;12.40;99.90;;;;;;5101800;28;20059;-76
2023/08/28 02:19:16;;;;;;;0.47;0.47;;;12.40;99.90;;;;;;5085771;28;20131;-77
2023/08/28 02:21:41;;;;;;;0.40;0.40;;;12.30;99.90;;;;;;5088730;28;20095;-76
2023/08/28 02:24:07;;;;;;;0.35;0.35;;;12.40;99.90;;;;;;5086039;28;20048;-76
2023/08/28 02:26:33;;;;;;;0.70;0.55;;;12.40;99.90;;;;;;5091164;28;20845;-76
2023/08/28 02:28:58;;;;;;;0.68;0.68;;;12.40;99.90;;;;;;5089181;28;20065;-76
2023/08/28 02:31:24;;;;;;;0.40;0.40;;;12.30;99.90;;;;;;5087379;28;20101;-77
2023/08/28 02:33:50;;;;;;;0.40;0.40;;;12.00;99.90;;;;;;5088056;28;20056;-76
2023/08/28 02:36:15;;;;;;;0.88;0.60;;;12.20;99.90;;;;;;5089736;28;20107;-76
2023/08/28 02:38:41;;;;;;;0.32;0.32;;;12.40;99.90;;;;;;5087824;28;20123;-76
2023/08/28 02:41:09;;;;;;;0.30;0.30;;;12.40;99.90;;;;;;5087907;28;20067;-77
2023/08/28 02:43:36;;;;;;;0.30;0.30;;;12.30;99.90;;;;;;5089247;28;20051;-76
2023/08/28 02:46:02;;;;;;;0.40;0.40;;;12.50;99.90;;;;;;5088791;28;20047;-76
2023/08/28 02:48:28;;;;;;;0.40;0.40;;;12.40;99.90;;;;;;5087574;28;20850;-76
2023/08/28 02:50:55;;;;;;;0.30;0.30;;;12.30;99.90;;;;;;5085953;28;20055;-76
2023/08/28 02:53:21;;;;;;;0.40;0.40;;;12.70;99.90;;;;;;5086722;28;20564;-77
2023/08/28 02:56:09;;;;;;;0.40;0.40;;;12.30;99.90;;;;;;5102425;27;20119;-76
2023/08/28 02:58:35;;;;;;;0.30;0.30;;;12.50;99.90;;;;;;5088354;28;20044;-77
2023/08/28 03:01:01;;;;;;;0.32;0.32;;;12.50;99.90;;;;;;5085749;28;20387;-76
2023/08/28 03:03:26;;;;;;;0.30;0.30;;;12.40;99.90;;;;;;5086118;28;20146;-76
2023/08/28 03:05:52;;;;;;;0.30;0.30;;;12.40;99.90;;;;;;5085263;28;20048;-77
2023/08/28 03:08:18;;;;;;;1.30;1.30;;;12.40;99.90;;;;;;5087101;28;20597;-76
2023/08/28 03:10:43;;;;;;;0.40;0.40;;;12.30;99.90;;;;;;5089798;28;20071;-76
2023/08/28 03:13:09;;;;;;;0.40;0.40;;;12.20;99.90;;;;;;5082978;28;20058;-76
2023/08/28 03:15:34;;;;;;;0.30;0.30;;;12.20;99.90;;;;;;5088724;28;20151;-76
2023/08/28 03:18:00;;;;;;;0.30;0.30;;;12.10;99.90;;;;;;5086621;28;20051;-77
2023/08/28 03:20:26;;;;;;;0.35;0.35;;;12.10;99.90;;;;;;5079523;28;20052;-77
2023/08/28 03:22:51;;;;;;;0.35;0.35;;;12.10;99.90;;;;;;5087430;28;20048;-76
2023/08/28 03:25:17;;;;;;;0.40;0.40;;;12.00;99.90;;;;;;5082328;28;20127;-77
2023/08/28 03:27:43;;;;;;;0.30;0.30;;;12.10;99.90;;;;;;5081369;28;20075;-76
2023/08/28 03:30:09;;;;;;;0.40;0.40;;;12.10;99.90;;;;;;5085136;28;20463;-76
2023/08/28 03:32:34;;;;;;;;;;;12.10;99.90;;;;;;5087365;28;20047;-75
2023/08/28 03:35:00;;;;;;;0.30;0.30;;;12.20;99.90;;;;;;5088422;28;20354;-75
2023/08/28 03:37:25;;;;;;;0.50;0.50;;;12.40;99.90;;;;;;5101625;27;20120;-75
2023/08/28 03:39:51;;;;;;;0.60;0.60;;;12.20;99.90;;;;;;5084607;28;20151;-75
2023/08/28 03:42:17;;;;;;;0.40;0.40;;;12.20;99.90;;;;;;5085768;28;20136;-74
2023/08/28 03:44:43;;;;;;;0.55;0.55;;;12.30;99.90;;;;;;5086529;28;20127;-76
2023/08/28 03:47:08;;;;;;;0.30;0.30;;;12.10;99.90;;;;;;5086917;28;20059;-75
2023/08/28 03:49:34;;;;;;;0.40;0.40;;;12.10;99.90;;;;;;5085142;28;20052;-76
2023/08/28 03:51:59;;;;;;;0.47;0.47;;;12.30;99.90;;;;;;5097909;28;20388;-76
2023/08/28 03:54:27;;;;;;;0.40;0.40;;;12.00;99.90;;;;;;5084558;28;20529;-76
2023/08/28 03:56:53;;;;;;;0.50;0.50;;;11.90;99.90;;;;;;5085924;28;20052;-76
2023/08/28 03:59:21;;;;;;;0.22;0.22;;;11.20;99.90;;;;;;5097130;28;20052;-76
2023/08/28 04:01:47;;;;;;;0.47;0.47;;;11.70;99.90;;;;;;5085256;28;20052;-76
2023/08/28 04:04:13;;;;;;;2.10;0.88;;;11.90;99.90;;;;;;5088331;28;20128;-76
2023/08/28 04:06:39;;;;;;;0.50;0.50;;;11.60;99.90;;;;;;5089332;28;20252;-76
2023/08/28 04:09:05;;;;;;;0.30;0.30;;;11.60;99.90;;;;;;5091059;28;20063;-76
2023/08/28 04:11:31;;;;;;;0.40;0.40;;;11.50;99.90;;;;;;5088879;28;20180;-76
2023/08/28 04:13:57;;;;;;;0.30;0.30;;;11.70;99.90;;;;;;5085777;28;20081;-76
2023/08/28 04:16:23;;;;;;;0.40;0.40;;;11.60;99.90;;;;;;5087839;28;20047;-76
2023/08/28 04:18:48;;;;;;;0.30;0.30;;;11.50;99.90;;;;;;5085688;28;20683;-76
2023/08/28 04:21:14;;;;;;;0.50;0.50;;;11.40;99.90;;;;;;5096350;28;20048;-75
2023/08/28 04:23:40;;;;;;;;;;;11.20;99.90;;;;;;5083385;28;20190;-76
2023/08/28 04:26:06;;;;;;;0.50;0.50;;;11.30;99.90;;;;;;5087263;28;20010;-76
2023/08/28 04:28:31;;;;;;;0.30;0.30;;;11.40;99.90;;;;;;5086000;28;20048;-76
2023/08/28 04:30:57;;;;;;;0.40;0.40;;;11.30;99.90;;;;;;5085529;28;20047;-76
2023/08/28 04:33:23;;;;;;;0.38;0.38;;;11.50;99.90;;;;;;5092398;28;20044;-76
2023/08/28 04:35:49;;;;;;;0.40;0.40;;;11.30;99.90;;;;;;5089791;28;20131;-76
2023/08/28 04:38:15;;;;;;;0.35;0.35;;;11.40;99.90;;;;;;5083386;28;20173;-75
2023/08/28 04:40:40;;;;;;;0.40;0.40;;;11.40;99.90;;;;;;5088037;28;20043;-76
2023/08/28 04:43:06;;;;;;;0.40;0.40;;;11.60;99.90;;;;;;5090286;28;20098;-76
2023/08/28 04:45:32;;;;;;;0.57;0.57;;;11.40;99.90;;;;;;5090387;28;20036;-76
2023/08/28 04:47:57;;;;;;;0.43;0.43;;;11.40;99.90;;;;;;5091489;28;20067;-77
2023/08/28 04:50:23;;;;;;;0.40;0.40;;;11.50;99.90;;;;;;5088547;28;20124;-76
2023/08/28 04:52:49;;;;;;;0.38;0.38;;;11.30;99.90;;;;;;5092594;28;20048;-76
2023/08/28 04:55:14;;;;;;;0.40;0.40;;;11.40;99.90;;;;;;5089465;28;20124;-75
2023/08/28 04:57:40;;;;;;;0.40;0.40;;;11.40;99.90;;;;;;5089591;28;20059;-76
2023/08/28 05:00:07;;;;;;;0.35;0.35;;;11.30;99.90;;;;;;5093531;28;20601;-76
2023/08/28 05:02:32;;;;;;;0.63;0.57;;;11.30;99.90;;;;;;5090254;28;20052;-77
2023/08/28 05:04:58;;;;;;;0.40;0.40;;;11.40;99.90;;;;;;5090752;27;20116;-76
2023/08/28 05:07:24;;;;;;;0.57;0.57;;;11.20;99.90;;;;;;5084007;28;20051;-76
2023/08/28 05:09:49;;;;;;;0.30;0.30;;;11.40;99.90;;;;;;5082839;28;20043;-76
2023/08/28 05:12:15;;;;;;;0.30;0.30;;;11.30;99.90;;;;;;5072370;28;20082;-76
2023/08/28 05:14:40;;;;;;;0.30;0.30;;;11.40;99.90;;;;;;5090030;28;20078;-75
2023/08/28 05:17:06;;;;;;;0.30;0.30;;;11.40;99.90;;;;;;5085739;28;20043;-76
2023/08/28 05:19:32;;;;;;;0.30;0.30;;;11.50;99.90;;;;;;5087819;28;20044;-76
2023/08/28 05:21:58;;;;;;;0.38;0.38;;;11.50;99.90;;;;;;5089094;28;20104;-75
2023/08/28 05:24:23;;;;;;;0.40;0.40;;;11.50;99.90;;;;;;5091448;28;20055;-76
2023/08/28 05:26:49;;;;;;;0.40;0.40;;;11.60;99.90;;;;;;5098622;28;20055;-76
2023/08/28 05:29:14;;;;;;;0.40;0.40;;;11.60;99.90;;;;;;5094154;28;20105;-75
2023/08/28 05:31:40;;;;;;;0.40;0.40;;;11.70;99.90;;;;;;5093471;28;20109;-76
2023/08/28 05:34:06;;;;;;;0.40;0.40;;;11.80;99.90;;;;;;5097741;28;20048;-77
2023/08/28 05:36:31;;;;;;;0.35;0.35;;;11.80;99.90;;;;;;5090135;28;20079;-76
2023/08/28 05:38:57;;;;;;;0.40;0.40;;;11.90;99.90;;;;;;5092284;28;20460;-75
2023/08/28 05:41:23;;;;;;;0.30;0.30;;;12.00;99.90;;;;;;5091471;28;20039;-75
2023/08/28 05:43:49;;;;;;;0.55;0.55;;;12.10;99.90;;;;;;5091420;28;20040;-75
2023/08/28 05:46:14;;;;;;;0.32;0.32;;;12.20;99.90;;;;;;5088767;28;20908;-75
2023/08/28 05:48:40;;;;;;;0.38;0.35;;;12.20;99.90;;;;;;5101017;28;20055;-75
2023/08/28 05:51:06;;;;;;;0.38;0.38;;;12.30;99.90;;;;;;5091444;28;20047;-76
2023/08/28 05:53:32;;;;;;;0.70;0.70;;;12.40;99.90;;;;;;5087918;28;20169;-75
2023/08/28 05:55:58;;;;;;;0.30;0.30;;;12.40;99.90;;;;;;5097742;28;20069;-75
2023/08/28 05:58:24;;;;;;;0.35;0.35;;;12.40;99.90;;;;;;5096779;28;20478;-76
2023/08/28 06:00:50;;;;;;;0.40;0.40;;;12.40;99.90;;;;;;5090239;28;20127;-76
2023/08/28 06:03:15;;;;;;;0.40;0.40;;;12.60;99.90;;;;;;5098135;28;20044;-76
2023/08/28 06:05:41;;;;;;;0.30;0.30;;;12.50;99.90;;;;;;5095640;28;20059;-76
2023/08/28 06:08:07;;;;;;;2.08;0.70;;;12.60;99.90;;;;;;5083208;28;20085;-75
2023/08/28 06:10:38;;;;;;;0.45;0.45;;;12.80;99.90;;;;;;5089469;28;20051;-75
2023/08/28 06:13:04;;;;;;;0.30;0.30;;;12.70;99.90;;;;;;5092526;28;20428;-76
2023/08/28 06:15:30;;;;;;;0.70;0.70;;;12.90;99.90;;;;;;5087299;28;20094;-77
2023/08/28 06:17:56;;;;;;;0.55;0.55;;;12.80;99.90;;;;;;5090345;28;20051;-76
2023/08/28 06:20:22;;;;;;;0.30;0.30;;;12.90;99.90;;;;;;5065990;28;20055;-76
2023/08/28 06:22:48;;;;;;;0.47;0.47;;;13.00;99.90;;;;;;5093602;28;20052;-76
2023/08/28 06:25:13;;;;;;;0.40;0.40;;;13.10;99.90;;;;;;5100623;28;20051;-76
2023/08/28 06:27:39;;;;;;;0.50;0.50;;;13.20;99.90;;;;;;5093026;28;20055;-76
2023/08/28 06:30:05;;;;;;;;;;;13.30;99.90;;;;;;5089021;28;20040;-78
2023/08/28 06:32:31;;;;;;;0.50;0.50;;;13.50;99.90;;;;;;5092767;28;19924;-78
2023/08/28 06:34:57;;;;;;;0.30;0.30;;;13.60;99.90;;;;;;5090426;28;20039;-76
2023/08/28 06:37:24;;;;;;;0.30;0.30;;;13.80;99.90;;;;;;5093781;28;20043;-76
2023/08/28 06:39:53;;;;;;;0.40;0.40;;;13.90;99.90;;;;;;5100274;28;20520;-76
2023/08/28 06:42:19;;;;;;;0.45;0.45;;;14.00;99.90;;;;;;5102705;28;20044;-75
2023/08/28 06:44:45;;;;;;;0.30;0.30;;;14.10;99.90;;;;;;5087981;28;20187;-74
2023/08/28 06:47:10;;;;;;;;;;;14.50;99.90;;;;;;5087644;28;20135;-75
2023/08/28 06:49:36;;;;;;;0.63;0.63;;;14.30;99.90;;;;;;5092973;28;19930;-75
2023/08/28 06:52:05;;;;;;;0.30;0.30;;;14.40;99.90;;;;;;5088603;27;20084;-75
2023/08/28 06:54:32;;;;;;;0.30;0.30;;;14.50;99.90;;;;;;5075896;28;20060;-76
2023/08/28 06:56:58;;;;;;;0.30;0.30;;;14.60;99.90;;;;;;5082644;28;20189;-76
2023/08/28 06:59:24;;;;;;;;;;;14.70;99.90;;;;;;5089081;28;20047;-75
2023/08/28 07:01:50;;;;;;;1.05;1.05;;;14.80;99.90;;;;;;5079307;28;19955;-76
2023/08/28 07:04:15;;;;;;;0.60;0.60;;;14.90;99.90;;;;;;5085808;28;20090;-76
2023/08/28 07:06:41;;;;;;;0.35;0.35;;;15.00;99.90;;;;;;5083059;28;20108;-76
2023/08/28 07:09:07;;;;;;;0.40;0.40;;;15.10;99.90;;;;;;5081881;28;20086;-77
2023/08/28 07:11:32;;;;;;;0.47;0.47;;;15.20;99.90;;;;;;5091815;28;20441;-76
2023/08/28 07:13:59;;;;;;;0.55;0.40;;;15.30;99.90;;;;;;5088796;28;20048;-76
2023/08/28 07:16:25;;;;;;;0.50;0.50;;;15.40;99.90;;;;;;5090887;28;20105;-75
2023/08/28 07:18:50;;;;;;;0.40;0.40;;;16.30;99.90;;;;;;5086949;28;20104;-74
2023/08/28 07:21:16;;;;;;;0.40;0.40;;;15.50;99.90;;;;;;5085177;28;20064;-75
2023/08/28 07:23:42;;;;;;;;;;;15.90;99.90;;;;;;5095475;28;20052;-75
2023/08/28 07:26:08;;;;;;;0.47;0.47;;;16.00;99.90;;;;;;5103711;28;19923;-74
2023/08/28 07:28:33;;;;;;;;;;;16.00;99.90;;;;;;5091480;28;20066;-76
2023/08/28 07:31:01;;;;;;;0.30;0.30;;;16.00;99.90;;;;;;5093121;28;19934;-75
2023/08/28 07:33:27;;;;;;;0.40;0.40;;;16.10;99.90;;;;;;5087611;28;20043;-76
2023/08/28 07:35:52;;;;;;;0.35;0.35;;;16.20;99.90;;;;;;5084469;28;20044;-75
2023/08/28 07:38:18;;;;;;;0.20;0.20;;;16.30;99.90;;;;;;5086425;28;20048;-76
2023/08/28 07:40:44;;;;;;;;;;;;;;;;;;5102858;28;20047;-76
2023/08/28 07:43:11;;;;;;;0.43;0.38;;;;;;;;;;5087614;28;19967;-76
2023/08/28 07:45:37;;;;;;;;;;;;;;;;;;5085151;28;20060;-76
2023/08/28 07:48:03;;;;;;;0.20;0.20;;;;;;;;;;5086094;28;19963;-75
2023/08/28 07:50:30;;;;;;;0.57;0.50;;;;;;;;;;5086983;28;20517;-76
2023/08/28 07:52:56;;;;;;;0.20;0.20;;;;;;;;;;5087799;28;20776;-75
2023/08/28 07:55:22;;;;;;;0.47;0.30;;;;;;;;;;5100601;28;20132;-75
2023/08/28 07:57:48;;;;;;;;;;;;;;;;;;5086101;28;20395;-76
2023/08/28 08:00:16;;;;;;;0.45;0.45;;;;;;;;;;5084988;28;19927;-76
2023/08/28 08:02:42;;;;;;;0.57;0.57;;;;;;;;;;5086743;28;20501;-77
2023/08/28 08:05:11;;;;;;;0.20;0.20;;;;;;;;;;5084477;28;20048;-75
2023/08/28 08:07:40;;;;;;;0.47;0.47;;;;;;;;;;5092092;28;20179;-76
2023/08/28 08:10:07;;;;;;;0.80;0.80;;;;;;;;;;5084613;28;20059;-76
2023/08/28 08:12:33;;;;;;;0.30;0.30;;;;;;;;;;5082867;28;20102;-76
2023/08/28 08:14:59;;;;;;;0.40;0.40;;;17.50;99.90;;;;;;5082072;28;20035;-76
2023/08/28 08:17:24;;;;;;;;;;;17.40;99.90;;;;;;5088697;28;20821;-76
2023/08/28 08:19:50;;;;;;;0.30;0.30;;;17.40;99.90;;;;;;5084765;28;20302;-76
2023/08/28 08:22:16;;;;;;;1.30;1.08;;;17.60;99.90;;;;;;5086933;28;20092;-77
2023/08/28 08:24:41;;;;;;;;;;;17.80;99.90;;;;;;5095711;28;20048;-76
2023/08/28 08:27:07;;;;;;;0.28;0.28;;;17.80;99.90;;;;;;5096783;28;19931;-77
2023/08/28 08:29:33;;;;;;;;;;;18.30;99.90;;;;;;5084838;28;20051;-77
2023/08/28 08:31:58;;;;;;;0.40;0.40;;;18.00;99.90;;;;;;5097587;28;19980;-76
2023/08/28 08:34:24;;;;;;;;;;;18.40;99.90;;;;;;5104351;28;20056;-77
2023/08/28 08:36:50;;;;;;;0.50;0.50;;;18.30;99.90;;;;;;5084967;28;19973;-77
2023/08/28 08:39:15;;;;;;;;;;;18.10;99.90;;;;;;5087690;28;20067;-76
2023/08/28 08:41:43;;;;;;;0.30;0.30;;;18.00;99.90;;;;;;5088973;28;20019;-78
2023/08/28 08:44:08;;;;;;;0.30;0.30;;;17.80;99.90;;;;;;5094984;28;20054;-76
2023/08/28 08:46:34;;;;;;;;;;;17.80;99.90;;;;;;5091065;28;20039;-75
2023/08/28 08:49:03;;;;;;;0.40;0.40;;;18.00;99.90;;;;;;5082561;28;20022;-76
2023/08/28 08:51:31;;;;;;;0.30;0.30;;;18.30;99.90;;;;;;5083867;28;20044;-76
2023/08/28 08:54:07;;;;;;;0.30;0.30;;;18.50;99.90;;;;;;5086643;28;20044;-78
2023/08/28 08:56:36;;;;;;;0.30;0.30;;;18.80;99.90;;;;;;5089003;28;20052;-77
2023/08/28 08:59:03;;;;;;;0.30;0.30;;;;;;;;;;5087874;28;20436;-77
2023/08/28 09:01:30;;;;;;;0.20;0.20;;;;;;;;;;5087107;28;20052;-78
2023/08/28 09:03:58;;;;;;;0.32;0.32;;;19.40;99.90;;;;;;5079417;28;20048;-78
2023/08/28 09:06:26;;;;;;;0.30;0.30;;;19.40;99.90;;;;;;5076025;28;20180;-78
2023/08/28 09:08:52;;;;;;;0.30;0.30;;;19.30;99.90;;;;;;5078261;28;20074;-77
2023/08/28 09:11:17;;;;;;;;;;;19.20;99.90;;;;;;5085657;28;20072;-77
2023/08/28 09:13:43;;;;;;;0.20;0.20;;;19.60;99.90;;;;;;5078398;28;20051;-77
2023/08/28 09:16:10;;;;;;;0.30;0.30;;;19.40;99.90;;;;;;5087857;28;20048;-78
2023/08/28 09:18:37;;;;;;;0.30;0.30;;;19.30;99.90;;;;;;5086400;28;20048;-78
2023/08/28 09:21:13;;;;;;;3.63;0.75;;;19.20;99.90;;;;;;5099765;28;20040;-77
2023/08/28 09:23:46;;;;;;;0.25;0.25;;;19.50;99.90;;;;;;5099083;28;20047;-77
2023/08/28 09:26:18;;;;;;;0.20;0.20;;;19.50;99.90;;;;;;5095770;28;20055;-77
2023/08/28 09:29:06;;;;;;;0.40;0.40;;;19.80;99.90;;;;;;5096716;28;20056;-77
2023/08/28 09:31:33;;;;;;;0.32;0.32;;;20.00;99.90;;;;;;5101396;27;20170;-78
2023/08/28 09:34:00;;;;;;;0.20;0.20;;;20.20;99.90;;;;;;5082899;28;20043;-77
2023/08/28 09:36:28;;;;;;;0.20;0.20;;;19.90;99.90;;;;;;5082431;28;20506;-76
2023/08/28 09:38:59;;;;;;;0.30;0.30;;;19.80;99.90;;;;;;5088144;28;20375;-77
2023/08/28 09:41:48;;;;;;;0.20;0.20;;;19.70;99.90;;;;;;5081425;28;20040;-78
2023/08/28 09:44:15;;;;;;;0.20;0.20;;;19.80;99.90;;;;;;5087593;28;20052;-78
2023/08/28 09:46:45;;;;;;;0.50;0.50;;;19.70;99.90;;;;;;5086309;28;20119;-76
2023/08/28 09:49:13;;;;;;;0.40;0.40;;;18.90;99.90;;;;;;5080658;28;20487;-77
2023/08/28 09:51:42;;;;;;;0.22;0.22;;;18.40;99.90;;;;;;5089044;28;20157;-76
2023/08/28 09:54:10;;;;;;;0.20;0.20;;;18.00;99.90;;;;;;5086520;28;20042;-78
2023/08/28 09:56:37;;;;;;;0.30;0.30;;;17.80;99.90;;;;;;5087957;28;20055;-75
2023/08/28 09:59:03;;;;;;;0.30;0.30;;;17.60;99.90;;;;;;5087549;28;20327;-76
2023/08/28 10:01:35;;;;;;;0.40;0.40;;;17.50;99.90;;;;;;5086987;28;20048;-74
2023/08/28 10:04:09;;;;;;;0.32;0.32;;;17.70;99.90;;;;;;5081372;28;20100;-77
2023/08/28 10:06:43;;;;;;;0.30;0.30;;;18.10;99.90;;;;;;5078743;28;20054;-76
2023/08/28 10:09:18;;;;;;;0.30;0.30;;;17.60;99.90;;;;;;5081273;28;20487;-77
2023/08/28 10:11:45;;;;;;;0.30;0.30;;;17.70;99.90;;;;;;5085925;28;20036;-77
2023/08/28 10:14:12;;;;;;;0.22;0.22;;;17.80;99.90;;;;;;5083568;28;20048;-77
2023/08/28 10:16:52;;;;;;;0.30;0.30;;;17.70;99.90;;;;;;5078225;28;20053;-77
2023/08/28 10:19:23;;;;;;;0.20;0.20;;;17.90;99.90;;;;;;5085601;28;20055;-77
2023/08/28 10:21:51;;;;;;;0.30;0.30;;;18.30;99.90;;;;;;5081494;28;20054;-76
2023/08/28 10:24:17;;;;;;;0.50;0.50;;;18.30;99.90;;;;;;5080989;28;20131;-76
2023/08/28 10:26:44;;;;;;;0.30;0.30;;;18.10;99.90;;;;;;5084245;28;20044;-76
2023/08/28 10:29:10;;;;;;;0.30;0.30;;;18.10;99.90;;;;;;5085420;28;20117;-76
2023/08/28 10:31:37;;;;;;;0.30;0.30;;;18.40;99.90;;;;;;5082818;28;20784;-76
2023/08/28 10:34:06;;;;;;;0.20;0.20;;;18.40;99.90;;;;;;5083958;28;20052;-76
2023/08/28 10:36:32;;;;;;;0.30;0.30;;;18.70;99.90;;;;;;5083672;28;20048;-76
2023/08/28 10:39:00;;;;;;;0.20;0.20;;;18.80;99.90;;;;;;5084108;28;20079;-76
2023/08/28 10:41:28;;;;;;;0.30;0.30;;;19.10;99.90;;;;;;5089480;28;20722;-76
2023/08/28 10:43:56;;;;;;;0.22;0.22;;;19.00;99.90;;;;;;5082766;28;20088;-77
2023/08/28 10:46:22;;;;;;;0.30;0.30;;;19.00;99.90;;;;;;5095400;27;20569;-76
2023/08/28 10:48:55;;;;;;;0.32;0.32;;;19.20;99.90;;;;;;5087034;28;20766;-76
2023/08/28 10:51:23;;;;;;;0.30;0.30;;;19.80;99.90;;;;;;5082005;28;20039;-77
2023/08/28 10:53:51;;;;;;;0.20;0.20;;;19.70;99.90;;;;;;5079534;28;20056;-76
2023/08/28 10:56:17;;;;;;;0.22;0.22;;;19.70;99.90;;;;;;5086584;28;20058;-77
2023/08/28 10:58:43;;;;;;;0.35;0.35;;;19.80;99.90;;;;;;5093080;28;20044;-78
2023/08/28 11:01:09;;;;;;;;;;;;;;;;;;5093531;28;20134;-77
2023/08/28 11:04:15;;;;;;;0.30;0.30;;;20.60;99.90;;;;;;5086271;28;20006;-77
2023/08/28 11:06:43;;;;;;;0.95;0.95;;;21.30;99.90;;;;;;5057406;28;20061;-78
2023/08/28 11:09:27;;;;;;;1.00;0.68;;;21.50;99.90;;;;;;5069968;28;20055;-77
2023/08/28 11:12:02;;;;;;;0.20;0.20;;;21.70;99.90;;;;;;5072957;28;20056;-78
2023/08/28 11:14:39;;;;;;;0.30;0.30;;;21.60;99.90;;;;;;5059446;28;20095;-82
2023/08/28 11:17:05;;;;;;;0.20;0.20;;;21.60;99.90;;;;;;5081713;28;20048;-78
2023/08/28 11:19:31;;;;;;;0.50;0.50;;;21.70;99.90;;;;;;5097290;28;20235;-77
2023/08/28 11:22:00;;;;;;;0.40;0.40;;;21.50;99.90;;;;;;5083315;28;20859;-79
2023/08/28 11:24:26;;;;;;;0.30;0.30;;;21.20;99.90;;;;;;5088519;28;20059;-79
2023/08/28 11:26:54;;;;;;;0.13;0.13;;;20.80;99.90;;;;;;5085156;28;20062;-78
2023/08/28 11:29:32;;;;;;;0.50;0.50;;;20.30;99.90;;;;;;5084561;28;20055;-78
2023/08/28 11:31:58;;;;;;;0.20;0.20;;;19.70;99.90;;;;;;5084250;28;20123;-78
2023/08/28 11:34:24;;;;;;;0.50;0.50;;;19.20;99.90;;;;;;5083768;28;20043;-78
2023/08/28 11:36:49;;;;;;;;;;;18.80;99.90;;;;;;5078368;28;20474;-78
2023/08/28 12:21:03;;;;;;;0.20;0.20;;;20.00;99.90;;;;;;5068167;28;20449;-79
2023/08/28 12:23:29;;;;;;;0.20;0.20;;;20.80;99.90;;;;;;5040588;28;20052;-77
2023/08/28 12:25:55;;;;;;;0.20;0.20;;;21.00;99.90;;;;;;5048815;28;20949;-78
2023/08/28 12:28:20;;;;;;;;;;;21.10;99.90;;;;;;5060882;28;20048;-78
2023/08/28 12:30:51;;;;;;;0.20;0.20;;;21.10;99.90;;;;;;5064215;28;19928;-79
2023/08/28 12:33:17;;;;;;;0.20;0.20;;;21.30;99.90;;;;;;5055099;28;20061;-79
2023/08/28 12:35:43;;;;;;;0.20;0.20;;;21.40;99.90;;;;;;5050842;28;20057;-79
2023/08/28 12:38:08;;;;;;;0.30;0.30;;;21.60;99.90;;;;;;5079037;28;20048;-79
2023/08/28 12:40:36;;;;;;;0.47;0.30;;;21.90;99.90;;;;;;5054387;28;20044;-79
2023/08/28 12:43:11;;;;;;;0.20;0.20;;;21.90;99.90;;;;;;5058030;28;20436;-78
2023/08/28 12:45:37;;;;;;;0.20;0.20;;;21.70;99.90;;;;;;5057955;28;20472;-77
2023/08/28 12:48:03;;;;;;;0.20;0.20;;;21.60;99.90;;;;;;5060819;28;20059;-78
2023/08/28 12:50:29;;;;;;;0.25;0.25;;;21.50;99.90;;;;;;5074921;28;20062;-77
2023/08/28 12:52:54;;;;;;;0.28;0.28;;;21.30;99.90;;;;;;5056576;28;20078;-78
2023/08/28 12:55:20;;;;;;;0.32;0.32;;;21.20;99.90;;;;;;5054925;28;20041;-78
2023/08/28 12:57:46;;;;;;;;;;;21.30;99.90;;;;;;5060466;28;20158;-78
2023/08/28 13:00:12;;;;;;;0.20;0.20;;;21.50;99.90;;;;;;5072083;28;19921;-77
2023/08/28 13:02:38;;;;;;;0.20;0.20;;;21.60;99.90;;;;;;5054888;28;20040;-77
2023/08/28 13:05:06;;;;;;;0.30;0.30;;;21.60;99.90;;;;;;5065378;28;20044;-77
2023/08/28 13:07:32;;;;;;;0.20;0.20;;;21.70;99.90;;;;;;5060458;28;20053;-78
2023/08/28 13:09:58;;;;;;;0.15;0.15;;;21.70;99.90;;;;;;5065017;28;20094;-78
2023/08/28 13:12:24;;;;;;;0.20;0.20;;;21.60;99.90;;;;;;5051021;28;20079;-78
2023/08/28 13:14:50;;;;;;;0.20;0.20;;;21.60;99.90;;;;;;5059771;28;20048;-77
2023/08/28 13:17:16;;;;;;;0.20;0.20;;;21.60;99.90;;;;;;5059577;28;20051;-78
2023/08/28 13:19:44;;;;;;;0.50;0.50;;;21.80;99.90;;;;;;5045431;28;20081;-77
2023/08/28 13:22:10;;;;;;;0.20;0.20;;;22.00;99.90;;;;;;5044418;28;20486;-77
2023/08/28 13:24:35;;;;;;;0.15;0.15;;;22.30;99.90;;;;;;5047194;28;20056;-78
2023/08/28 13:27:03;;;;;;;0.38;0.38;;;22.60;99.90;;;;;;5046596;28;20048;-78
2023/08/28 13:29:29;;;;;;;0.30;0.30;;;22.90;99.90;;;;;;5048908;28;20455;-77
2023/08/28 13:31:55;;;;;;;0.10;0.10;;;23.20;99.90;;;;;;5043374;28;20033;-79
2023/08/28 13:34:20;;;;;;;0.80;0.52;;;23.50;99.90;;;;;;5049165;28;20117;-79
2023/08/28 13:36:46;;;;;;;0.10;0.10;;;23.70;99.90;;;;;;5049307;28;20123;-78
2023/08/28 13:39:12;;;;;;;0.30;0.30;;;23.90;99.90;;;;;;5049801;28;20401;-79
2023/08/28 13:41:38;;;;;;;0.10;0.10;;;24.10;99.90;;;;;;5051691;28;20382;-78